sensor_id;sensor_type;location;lat;lon;timestamp;pressure;altitude;pressure_sealevel;temperature;humidity
27040;BME280;14589;51.578;7.306;2023-05-11T00:01:53;100878.38;;;14.10;90.60
27040;BME280;14589;51.578;7.306;2023-05-11T00:04:23;100866.09;;;14.06;90.93
27040;BME280;14589;51.578;7.306;2023-05-11T00:06:54;100869.69;;;14.06;90.92
27040;BME280;14589;51.578;7.306;2023-05-11T00:09:25;100874.09;;;13.99;90.83
27040;BME280;14589;51.578;7.306;2023-05-11T00:11:55;100872.41;;;13.98;90.72
27040;BME280;14589;51.578;7.306;2023-05-11T00:14:26;100868.31;;;13.94;91.42
27040;BME280;14589;51.578;7.306;2023-05-11T00:16:56;100868.97;;;13.96;91.41
27040;BME280;14589;51.578;7.306;2023-05-11T00:19:26;100872.22;;;13.92;91.29
27040;BME280;14589;51.578;7.306;2023-05-11T00:21:58;100874.94;;;13.92;91.34
27040;BME280;14589;51.578;7.306;2023-05-11T00:24:28;100865.19;;;13.81;91.44
27040;BME280;14589;51.578;7.306;2023-05-11T00:26:59;100871.31;;;13.83;91.39
27040;BME280;14589;51.578;7.306;2023-05-11T00:29:30;100865.53;;;13.78;91.66
27040;BME280;14589;51.578;7.306;2023-05-11T00:32:00;100868.06;;;13.71;91.60
27040;BME280;14589;51.578;7.306;2023-05-11T00:34:30;100869.25;;;13.69;91.93
27040;BME280;14589;51.578;7.306;2023-05-11T00:37:01;100878.75;;;13.65;91.89
27040;BME280;14589;51.578;7.306;2023-05-11T00:39:32;100877.09;;;13.64;91.90
27040;BME280;14589;51.578;7.306;2023-05-11T00:42:09;100864.63;;;13.61;92.47
27040;BME280;14589;51.578;7.306;2023-05-11T00:44:39;100861.38;;;13.58;92.14
27040;BME280;14589;51.578;7.306;2023-05-11T00:47:10;100864.59;;;13.53;92.10
27040;BME280;14589;51.578;7.306;2023-05-11T00:49:40;100875.66;;;13.52;91.97
27040;BME280;14589;51.578;7.306;2023-05-11T00:52:11;100863.03;;;13.43;92.41
27040;BME280;14589;51.578;7.306;2023-05-11T00:54:42;100869.47;;;13.42;92.25
27040;BME280;14589;51.578;7.306;2023-05-11T00:57:13;100869.97;;;13.37;92.64
27040;BME280;14589;51.578;7.306;2023-05-11T00:59:43;100873.56;;;13.38;92.43
27040;BME280;14589;51.578;7.306;2023-05-11T01:02:14;100875.75;;;13.34;92.14
27040;BME280;14589;51.578;7.306;2023-05-11T01:04:44;100872.34;;;13.32;92.50
27040;BME280;14589;51.578;7.306;2023-05-11T01:10:12;100868.41;;;13.26;92.42
27040;BME280;14589;51.578;7.306;2023-05-11T01:12:55;100870.59;;;13.23;92.29
27040;BME280;14589;51.578;7.306;2023-05-11T01:15:33;100877.22;;;13.20;92.60
27040;BME280;14589;51.578;7.306;2023-05-11T01:20:52;100874.13;;;13.15;92.12
27040;BME280;14589;51.578;7.306;2023-05-11T01:26:44;100876.38;;;13.20;92.84
27040;BME280;14589;51.578;7.306;2023-05-11T01:32:19;100883.50;;;13.21;93.21
27040;BME280;14589;51.578;7.306;2023-05-11T01:35:03;100874.50;;;13.20;93.16
27040;BME280;14589;51.578;7.306;2023-05-11T01:37:37;100878.91;;;13.21;93.26
27040;BME280;14589;51.578;7.306;2023-05-11T01:40:17;100876.88;;;13.23;92.80
27040;BME280;14589;51.578;7.306;2023-05-11T01:43:00;100882.34;;;13.23;93.69
27040;BME280;14589;51.578;7.306;2023-05-11T01:45:33;100871.13;;;13.26;93.40
27040;BME280;14589;51.578;7.306;2023-05-11T01:48:09;100865.69;;;13.26;93.50
27040;BME280;14589;51.578;7.306;2023-05-11T01:50:41;100878.81;;;13.31;93.04
27040;BME280;14589;51.578;7.306;2023-05-11T01:53:13;100880.19;;;13.35;93.47
27040;BME280;14589;51.578;7.306;2023-05-11T01:55:45;100887.19;;;13.38;93.65
27040;BME280;14589;51.578;7.306;2023-05-11T01:58:20;100879.31;;;13.34;93.38
27040;BME280;14589;51.578;7.306;2023-05-11T02:00:53;100880.88;;;13.37;93.38
27040;BME280;14589;51.578;7.306;2023-05-11T02:03:26;100884.63;;;13.36;93.34
27040;BME280;14589;51.578;7.306;2023-05-11T02:05:59;100881.19;;;13.34;93.22
27040;BME280;14589;51.578;7.306;2023-05-11T02:08:33;100877.59;;;13.33;92.81
27040;BME280;14589;51.578;7.306;2023-05-11T02:11:04;100880.84;;;13.29;93.68
27040;BME280;14589;51.578;7.306;2023-05-11T02:13:37;100883.56;;;13.29;93.30
27040;BME280;14589;51.578;7.306;2023-05-11T02:16:11;100883.72;;;13.27;93.31
27040;BME280;14589;51.578;7.306;2023-05-11T02:18:45;100890.00;;;13.28;93.45
27040;BME280;14589;51.578;7.306;2023-05-11T02:21:16;100887.28;;;13.28;93.43
27040;BME280;14589;51.578;7.306;2023-05-11T02:23:49;100887.69;;;13.33;93.73
27040;BME280;14589;51.578;7.306;2023-05-11T02:26:21;100893.13;;;13.33;93.35
27040;BME280;14589;51.578;7.306;2023-05-11T02:28:51;100888.50;;;13.33;93.38
27040;BME280;14589;51.578;7.306;2023-05-11T02:31:29;100899.41;;;13.33;93.20
27040;BME280;14589;51.578;7.306;2023-05-11T02:34:06;100901.97;;;13.35;93.53
27040;BME280;14589;51.578;7.306;2023-05-11T02:36:39;100903.53;;;13.38;93.28
27040;BME280;14589;51.578;7.306;2023-05-11T02:39:11;100898.75;;;13.40;93.30
27040;BME280;14589;51.578;7.306;2023-05-11T02:41:45;100899.94;;;13.37;93.56
27040;BME280;14589;51.578;7.306;2023-05-11T02:44:16;100897.06;;;13.39;93.34
27040;BME280;14589;51.578;7.306;2023-05-11T02:46:51;100902.03;;;13.43;93.53
27040;BME280;14589;51.578;7.306;2023-05-11T02:49:24;100896.56;;;13.43;93.77
27040;BME280;14589;51.578;7.306;2023-05-11T02:51:59;100902.03;;;13.43;93.48
27040;BME280;14589;51.578;7.306;2023-05-11T02:54:32;100901.31;;;13.41;93.57
27040;BME280;14589;51.578;7.306;2023-05-11T02:57:04;100903.88;;;13.43;93.55
27040;BME280;14589;51.578;7.306;2023-05-11T02:59:35;100906.63;;;13.43;93.29
27040;BME280;14589;51.578;7.306;2023-05-11T03:02:06;100895.88;;;13.41;93.46
27040;BME280;14589;51.578;7.306;2023-05-11T03:04:40;100910.19;;;13.43;93.23
27040;BME280;14589;51.578;7.306;2023-05-11T03:07:10;100894.34;;;13.39;93.49
27040;BME280;14589;51.578;7.306;2023-05-11T03:09:41;100899.09;;;13.36;93.14
27040;BME280;14589;51.578;7.306;2023-05-11T03:12:13;100912.56;;;13.38;93.29
27040;BME280;14589;51.578;7.306;2023-05-11T03:14:44;100906.25;;;13.38;93.15
27040;BME280;14589;51.578;7.306;2023-05-11T03:17:15;100893.78;;;13.35;93.47
27040;BME280;14589;51.578;7.306;2023-05-11T03:19:46;100901.13;;;13.34;93.32
27040;BME280;14589;51.578;7.306;2023-05-11T03:22:20;100895.50;;;13.36;93.44
27040;BME280;14589;51.578;7.306;2023-05-11T03:24:51;100897.22;;;13.37;93.44
27040;BME280;14589;51.578;7.306;2023-05-11T03:27:23;100898.94;;;13.38;93.74
27040;BME280;14589;51.578;7.306;2023-05-11T03:29:54;100893.63;;;13.36;93.23
27040;BME280;14589;51.578;7.306;2023-05-11T03:32:26;100892.78;;;13.36;93.37
27040;BME280;14589;51.578;7.306;2023-05-11T03:34:58;100883.06;;;13.33;93.42
27040;BME280;14589;51.578;7.306;2023-05-11T03:37:29;100901.13;;;13.34;93.73
27040;BME280;14589;51.578;7.306;2023-05-11T03:40:02;100893.94;;;13.33;93.41
27040;BME280;14589;51.578;7.306;2023-05-11T03:42:41;100890.22;;;13.34;93.52
27040;BME280;14589;51.578;7.306;2023-05-11T03:45:15;100890.22;;;13.34;93.40
27040;BME280;14589;51.578;7.306;2023-05-11T03:47:49;100900.75;;;13.29;93.06
27040;BME280;14589;51.578;7.306;2023-05-11T03:50:20;100892.22;;;13.24;93.38
27040;BME280;14589;51.578;7.306;2023-05-11T03:52:51;100896.66;;;13.25;93.72
27040;BME280;14589;51.578;7.306;2023-05-11T03:55:22;100895.09;;;13.23;93.53
27040;BME280;14589;51.578;7.306;2023-05-11T03:57:52;100889.13;;;13.19;93.40
27040;BME280;14589;51.578;7.306;2023-05-11T04:00:23;100890.44;;;13.15;93.55
27040;BME280;14589;51.578;7.306;2023-05-11T04:02:53;100891.66;;;13.13;93.97
27040;BME280;14589;51.578;7.306;2023-05-11T04:05:23;100898.06;;;13.12;93.85
27040;BME280;14589;51.578;7.306;2023-05-11T04:07:54;100895.50;;;13.10;93.72
27040;BME280;14589;51.578;7.306;2023-05-11T04:10:25;100904.53;;;13.11;93.74
27040;BME280;14589;51.578;7.306;2023-05-11T04:12:55;100899.94;;;13.11;94.26
27040;BME280;14589;51.578;7.306;2023-05-11T04:15:26;100897.22;;;13.11;94.12
27040;BME280;14589;51.578;7.306;2023-05-11T04:17:56;100895.22;;;13.13;93.89
27040;BME280;14589;51.578;7.306;2023-05-11T04:20:27;100893.63;;;13.11;94.40
27040;BME280;14589;51.578;7.306;2023-05-11T04:22:57;100897.59;;;13.16;94.00
27040;BME280;14589;51.578;7.306;2023-05-11T04:25:27;100886.88;;;13.15;94.32
27040;BME280;14589;51.578;7.306;2023-05-11T04:27:58;100897.13;;;13.21;94.34
27040;BME280;14589;51.578;7.306;2023-05-11T04:30:28;100901.41;;;13.23;94.18
27040;BME280;14589;51.578;7.306;2023-05-11T04:33:00;100909.25;;;13.26;94.16
27040;BME280;14589;51.578;7.306;2023-05-11T04:35:30;100911.81;;;13.28;94.58
27040;BME280;14589;51.578;7.306;2023-05-11T04:38:01;100905.19;;;13.30;94.18
27040;BME280;14589;51.578;7.306;2023-05-11T04:40:31;100913.72;;;13.35;94.52
27040;BME280;14589;51.578;7.306;2023-05-11T04:43:02;100900.81;;;13.38;94.23
27040;BME280;14589;51.578;7.306;2023-05-11T04:45:32;100895.50;;;13.36;94.28
27040;BME280;14589;51.578;7.306;2023-05-11T04:48:04;100907.63;;;13.42;94.01
27040;BME280;14589;51.578;7.306;2023-05-11T04:50:35;100904.75;;;13.43;94.13
27040;BME280;14589;51.578;7.306;2023-05-11T04:53:08;100909.34;;;13.43;93.89
27040;BME280;14589;51.578;7.306;2023-05-11T04:55:38;100910.34;;;13.42;93.59
27040;BME280;14589;51.578;7.306;2023-05-11T04:58:09;100915.47;;;13.45;94.00
27040;BME280;14589;51.578;7.306;2023-05-11T05:00:40;100916.81;;;13.41;94.12
27040;BME280;14589;51.578;7.306;2023-05-11T05:03:10;100923.97;;;13.42;94.03
27040;BME280;14589;51.578;7.306;2023-05-11T05:05:40;100921.41;;;13.40;93.77
27040;BME280;14589;51.578;7.306;2023-05-11T05:08:11;100917.81;;;13.40;93.83
27040;BME280;14589;51.578;7.306;2023-05-11T05:10:41;100931.84;;;13.45;94.25
27040;BME280;14589;51.578;7.306;2023-05-11T05:13:12;100922.47;;;13.47;93.97
27040;BME280;14589;51.578;7.306;2023-05-11T05:15:43;100929.78;;;13.47;93.51
27040;BME280;14589;51.578;7.306;2023-05-11T05:18:14;100929.97;;;13.45;93.29
27040;BME280;14589;51.578;7.306;2023-05-11T05:20:47;100942.38;;;13.48;93.67
27040;BME280;14589;51.578;7.306;2023-05-11T05:23:17;100933.34;;;13.47;93.92
27040;BME280;14589;51.578;7.306;2023-05-11T05:25:48;100935.94;;;13.49;93.05
27040;BME280;14589;51.578;7.306;2023-05-11T05:28:19;100939.50;;;13.49;93.06
27040;BME280;14589;51.578;7.306;2023-05-11T05:30:50;100946.81;;;13.49;92.71
27040;BME280;14589;51.578;7.306;2023-05-11T05:33:20;100944.25;;;13.47;92.66
27040;BME280;14589;51.578;7.306;2023-05-11T05:35:51;100941.38;;;13.49;92.51
27040;BME280;14589;51.578;7.306;2023-05-11T05:38:21;100944.81;;;13.51;92.03
27040;BME280;14589;51.578;7.306;2023-05-11T05:40:51;100946.19;;;13.55;92.30
27040;BME280;14589;51.578;7.306;2023-05-11T05:43:22;100952.31;;;13.57;92.03
27040;BME280;14589;51.578;7.306;2023-05-11T05:45:53;100952.03;;;13.68;92.39
27040;BME280;14589;51.578;7.306;2023-05-11T05:48:23;100944.41;;;13.80;92.22
27040;BME280;14589;51.578;7.306;2023-05-11T05:50:53;100948.22;;;13.95;92.15
27040;BME280;14589;51.578;7.306;2023-05-11T05:53:24;100954.22;;;14.14;91.88
27040;BME280;14589;51.578;7.306;2023-05-11T05:55:55;100965.00;;;14.24;91.37
27040;BME280;14589;51.578;7.306;2023-05-11T05:58:25;100954.31;;;14.39;91.06
27040;BME280;14589;51.578;7.306;2023-05-11T06:00:56;100961.69;;;14.54;90.90
27040;BME280;14589;51.578;7.306;2023-05-11T06:03:27;100961.16;;;14.51;88.84
27040;BME280;14589;51.578;7.306;2023-05-11T06:05:57;100961.84;;;14.45;89.72
27040;BME280;14589;51.578;7.306;2023-05-11T06:08:28;100978.56;;;14.42;89.41
27040;BME280;14589;51.578;7.306;2023-05-11T06:10:58;100975.75;;;14.34;89.26
27040;BME280;14589;51.578;7.306;2023-05-11T06:13:29;100975.41;;;14.29;89.53
27040;BME280;14589;51.578;7.306;2023-05-11T06:16:00;100978.50;;;14.26;89.02
27040;BME280;14589;51.578;7.306;2023-05-11T06:18:37;100976.09;;;14.23;89.16
27040;BME280;14589;51.578;7.306;2023-05-11T06:21:10;100967.59;;;14.26;89.03
27040;BME280;14589;51.578;7.306;2023-05-11T06:23:40;100974.56;;;14.28;89.30
27040;BME280;14589;51.578;7.306;2023-05-11T06:26:11;100973.88;;;14.26;88.75
27040;BME280;14589;51.578;7.306;2023-05-11T06:28:42;100974.06;;;14.33;88.89
27040;BME280;14589;51.578;7.306;2023-05-11T06:31:17;100969.84;;;14.38;88.67
27040;BME280;14589;51.578;7.306;2023-05-11T06:33:48;100954.69;;;14.44;88.82
27040;BME280;14589;51.578;7.306;2023-05-11T06:36:25;100964.75;;;14.51;88.36
27040;BME280;14589;51.578;7.306;2023-05-11T06:38:58;100973.13;;;14.66;88.65
27040;BME280;14589;51.578;7.306;2023-05-11T06:41:30;100966.47;;;14.77;88.47
27040;BME280;14589;51.578;7.306;2023-05-11T06:44:00;100971.41;;;14.81;88.00
27040;BME280;14589;51.578;7.306;2023-05-11T06:46:38;100974.84;;;14.91;87.50
27040;BME280;14589;51.578;7.306;2023-05-11T06:49:09;100974.34;;;15.04;87.06
27040;BME280;14589;51.578;7.306;2023-05-11T06:51:39;100977.56;;;15.16;87.27
27040;BME280;14589;51.578;7.306;2023-05-11T06:54:10;100963.88;;;15.32;86.41
27040;BME280;14589;51.578;7.306;2023-05-11T06:56:40;100973.56;;;15.59;86.43
27040;BME280;14589;51.578;7.306;2023-05-11T06:59:12;100975.75;;;15.71;85.19
27040;BME280;14589;51.578;7.306;2023-05-11T07:01:42;100978.28;;;15.81;83.58
27040;BME280;14589;51.578;7.306;2023-05-11T07:04:13;100967.00;;;15.84;84.59
27040;BME280;14589;51.578;7.306;2023-05-11T07:11:37;100967.66;;;15.86;83.16
27040;BME280;14589;51.578;7.306;2023-05-11T07:14:08;100971.94;;;15.89;83.88
27040;BME280;14589;51.578;7.306;2023-05-11T07:16:38;100981.22;;;15.71;82.19
27040;BME280;14589;51.578;7.306;2023-05-11T07:19:09;100973.31;;;15.85;82.51
27040;BME280;14589;51.578;7.306;2023-05-11T07:21:39;100978.97;;;15.83;83.09
27040;BME280;14589;51.578;7.306;2023-05-11T07:24:10;100977.09;;;15.84;82.95
27040;BME280;14589;51.578;7.306;2023-05-11T07:26:40;100978.19;;;15.66;82.07
27040;BME280;14589;51.578;7.306;2023-05-11T07:29:10;100979.69;;;15.69;82.00
27040;BME280;14589;51.578;7.306;2023-05-11T07:31:41;100986.00;;;15.69;81.82
27040;BME280;14589;51.578;7.306;2023-05-11T07:34:12;100971.09;;;15.80;82.28
27040;BME280;14589;51.578;7.306;2023-05-11T07:36:42;100977.41;;;15.81;82.73
27040;BME280;14589;51.578;7.306;2023-05-11T07:39:12;100978.25;;;15.89;83.16
27040;BME280;14589;51.578;7.306;2023-05-11T07:41:45;100973.63;;;15.98;83.07
27040;BME280;14589;51.578;7.306;2023-05-11T07:44:16;100985.22;;;16.00;82.46
27040;BME280;14589;51.578;7.306;2023-05-11T07:46:46;100984.63;;;16.12;82.51
27040;BME280;14589;51.578;7.306;2023-05-11T07:49:17;100985.88;;;16.10;81.37
27040;BME280;14589;51.578;7.306;2023-05-11T07:51:48;100980.19;;;16.11;81.33
27040;BME280;14589;51.578;7.306;2023-05-11T07:54:18;100985.28;;;16.23;81.49
27040;BME280;14589;51.578;7.306;2023-05-11T07:56:49;100970.91;;;16.29;81.30
27040;BME280;14589;51.578;7.306;2023-05-11T07:59:19;100984.00;;;16.41;80.70
27040;BME280;14589;51.578;7.306;2023-05-11T08:01:50;100968.66;;;16.55;79.46
27040;BME280;14589;51.578;7.306;2023-05-11T08:04:20;100976.97;;;16.70;79.64
27040;BME280;14589;51.578;7.306;2023-05-11T08:06:51;100978.19;;;16.90;79.53
27040;BME280;14589;51.578;7.306;2023-05-11T08:09:21;100983.78;;;16.96;77.26
27040;BME280;14589;51.578;7.306;2023-05-11T08:11:53;100977.59;;;17.17;77.12
27040;BME280;14589;51.578;7.306;2023-05-11T08:14:25;100982.38;;;17.01;75.09
27040;BME280;14589;51.578;7.306;2023-05-11T08:16:56;100970.75;;;16.98;75.44
27040;BME280;14589;51.578;7.306;2023-05-11T08:19:26;100986.50;;;17.19;75.12
27040;BME280;14589;51.578;7.306;2023-05-11T08:21:57;100977.63;;;17.32;74.58
27040;BME280;14589;51.578;7.306;2023-05-11T08:24:27;100981.63;;;17.44;74.51
27040;BME280;14589;51.578;7.306;2023-05-11T08:26:57;100984.81;;;17.48;74.40
27040;BME280;14589;51.578;7.306;2023-05-11T08:29:28;100986.44;;;17.27;72.01
27040;BME280;14589;51.578;7.306;2023-05-11T08:31:58;100990.88;;;16.91;73.23
27040;BME280;14589;51.578;7.306;2023-05-11T08:34:28;100989.31;;;16.88;73.86
27040;BME280;14589;51.578;7.306;2023-05-11T08:36:59;100985.53;;;16.67;73.14
27040;BME280;14589;51.578;7.306;2023-05-11T08:39:33;100983.56;;;16.52;74.44
27040;BME280;14589;51.578;7.306;2023-05-11T08:42:04;100989.25;;;16.12;75.15
27040;BME280;14589;51.578;7.306;2023-05-11T08:44:37;100979.25;;;16.35;75.45
27040;BME280;14589;51.578;7.306;2023-05-11T08:47:10;100982.72;;;16.52;75.71
27040;BME280;14589;51.578;7.306;2023-05-11T08:49:40;100978.72;;;16.63;75.22
27040;BME280;14589;51.578;7.306;2023-05-11T08:52:12;100985.00;;;16.71;75.03
27040;BME280;14589;51.578;7.306;2023-05-11T08:54:44;100978.25;;;16.82;75.08
27040;BME280;14589;51.578;7.306;2023-05-11T08:57:15;100985.28;;;16.53;74.40
27040;BME280;14589;51.578;7.306;2023-05-11T08:59:47;100979.31;;;16.73;74.83
27040;BME280;14589;51.578;7.306;2023-05-11T09:02:18;100982.81;;;16.67;74.28
27040;BME280;14589;51.578;7.306;2023-05-11T09:04:49;100987.88;;;16.78;74.40
27040;BME280;14589;51.578;7.306;2023-05-11T09:07:20;100985.19;;;16.70;73.90
27040;BME280;14589;51.578;7.306;2023-05-11T09:09:53;100984.19;;;16.85;74.21
27040;BME280;14589;51.578;7.306;2023-05-11T09:12:23;100985.19;;;16.92;73.77
27040;BME280;14589;51.578;7.306;2023-05-11T09:14:57;100988.41;;;16.96;74.15
27040;BME280;14589;51.578;7.306;2023-05-11T09:17:27;100987.84;;;17.01;74.63
27040;BME280;14589;51.578;7.306;2023-05-11T09:19:59;100997.28;;;16.98;74.17
27040;BME280;14589;51.578;7.306;2023-05-11T09:22:42;100989.84;;;17.07;74.33
27040;BME280;14589;51.578;7.306;2023-05-11T09:25:14;100991.28;;;17.17;73.70
27040;BME280;14589;51.578;7.306;2023-05-11T09:27:46;100988.53;;;17.03;72.59
27040;BME280;14589;51.578;7.306;2023-05-11T09:30:19;100990.25;;;17.18;73.22
27040;BME280;14589;51.578;7.306;2023-05-11T09:32:57;100979.53;;;17.31;72.29
27040;BME280;14589;51.578;7.306;2023-05-11T09:35:32;100985.56;;;17.42;72.44
27040;BME280;14589;51.578;7.306;2023-05-11T09:38:10;100989.19;;;17.57;72.33
27040;BME280;14589;51.578;7.306;2023-05-11T09:40:49;100975.97;;;17.60;72.01
27040;BME280;14589;51.578;7.306;2023-05-11T09:43:25;100989.16;;;17.65;70.91
27040;BME280;14589;51.578;7.306;2023-05-11T09:45:57;100990.25;;;17.85;71.23
27040;BME280;14589;51.578;7.306;2023-05-11T09:48:30;100985.72;;;17.92;70.97
27040;BME280;14589;51.578;7.306;2023-05-11T09:51:06;100983.16;;;18.05;70.33
27040;BME280;14589;51.578;7.306;2023-05-11T09:53:41;100982.97;;;18.07;69.46
27040;BME280;14589;51.578;7.306;2023-05-11T09:56:13;100987.03;;;18.26;69.99
27040;BME280;14589;51.578;7.306;2023-05-11T09:58:52;100975.25;;;18.32;68.82
27040;BME280;14589;51.578;7.306;2023-05-11T10:01:29;100976.31;;;18.52;68.70
27040;BME280;14589;51.578;7.306;2023-05-11T10:04:01;100978.81;;;18.62;68.49
27040;BME280;14589;51.578;7.306;2023-05-11T10:06:43;100978.22;;;18.87;67.70
27040;BME280;14589;51.578;7.306;2023-05-11T10:09:15;100969.44;;;18.98;65.88
27040;BME280;14589;51.578;7.306;2023-05-11T10:11:48;100975.06;;;19.12;66.20
27040;BME280;14589;51.578;7.306;2023-05-11T10:14:20;100985.06;;;19.19;65.03
27040;BME280;14589;51.578;7.306;2023-05-11T10:16:51;100975.50;;;19.15;65.67
27040;BME280;14589;51.578;7.306;2023-05-11T10:19:23;100981.91;;;19.22;63.72
27040;BME280;14589;51.578;7.306;2023-05-11T10:21:54;100968.22;;;19.29;63.11
27040;BME280;14589;51.578;7.306;2023-05-11T10:24:26;100971.72;;;19.44;63.70
27040;BME280;14589;51.578;7.306;2023-05-11T10:26:57;100967.22;;;19.64;62.85
27040;BME280;14589;51.578;7.306;2023-05-11T10:29:28;100964.47;;;19.64;61.76
27040;BME280;14589;51.578;7.306;2023-05-11T10:32:00;100964.00;;;19.54;59.43
27040;BME280;14589;51.578;7.306;2023-05-11T10:34:32;100960.63;;;19.59;60.32
27040;BME280;14589;51.578;7.306;2023-05-11T10:37:03;100958.38;;;19.75;61.10
27040;BME280;14589;51.578;7.306;2023-05-11T10:39:36;100956.94;;;19.79;61.13
27040;BME280;14589;51.578;7.306;2023-05-11T10:43:08;100956.34;;;19.84;60.12
27040;BME280;14589;51.578;7.306;2023-05-11T10:45:19;100950.50;;;20.07;60.56
27040;BME280;14589;51.578;7.306;2023-05-11T10:48:21;100959.66;;;20.20;59.93
27040;BME280;14589;51.578;7.306;2023-05-11T10:51:12;100954.91;;;19.95;60.02
27040;BME280;14589;51.578;7.306;2023-05-11T10:54:05;100960.38;;;19.88;58.80
27040;BME280;14589;51.578;7.306;2023-05-11T10:57:05;100956.13;;;19.86;58.13
27040;BME280;14589;51.578;7.306;2023-05-11T10:59:49;100960.94;;;20.18;58.83
27040;BME280;14589;51.578;7.306;2023-05-11T11:02:21;100947.78;;;20.13;59.14
27040;BME280;14589;51.578;7.306;2023-05-11T11:04:51;100955.56;;;20.51;58.65
27040;BME280;14589;51.578;7.306;2023-05-11T11:07:22;100948.19;;;20.71;58.72
27040;BME280;14589;51.578;7.306;2023-05-11T11:09:59;100956.91;;;20.94;58.27
27040;BME280;14589;51.578;7.306;2023-05-11T11:12:30;100956.50;;;20.97;57.42
27040;BME280;14589;51.578;7.306;2023-05-11T11:15:05;100949.28;;;20.90;55.54
27040;BME280;14589;51.578;7.306;2023-05-11T11:17:36;100957.13;;;21.13;55.90
27040;BME280;14589;51.578;7.306;2023-05-11T11:20:07;100944.63;;;21.30;55.47
27040;BME280;14589;51.578;7.306;2023-05-11T11:22:42;100951.84;;;20.98;54.86
27040;BME280;14589;51.578;7.306;2023-05-11T11:25:14;100947.78;;;20.87;53.89
27040;BME280;14589;51.578;7.306;2023-05-11T11:30:19;100944.66;;;21.17;52.84
27040;BME280;14589;51.578;7.306;2023-05-11T11:32:52;100936.13;;;20.85;52.93
27040;BME280;14589;51.578;7.306;2023-05-11T11:38:14;100943.53;;;21.57;50.76
27040;BME280;14589;51.578;7.306;2023-05-11T11:40:48;100941.25;;;21.34;50.08
27040;BME280;14589;51.578;7.306;2023-05-11T11:43:26;100938.88;;;21.45;51.63
27040;BME280;14589;51.578;7.306;2023-05-11T11:45:58;100936.31;;;21.50;50.89
27040;BME280;14589;51.578;7.306;2023-05-11T11:48:30;100937.59;;;21.54;50.58
27040;BME280;14589;51.578;7.306;2023-05-11T11:51:10;100929.53;;;20.67;52.29
27040;BME280;14589;51.578;7.306;2023-05-11T12:01:20;100939.97;;;21.17;51.30
27040;BME280;14589;51.578;7.306;2023-05-11T12:06:38;100937.19;;;21.44;50.10
27040;BME280;14589;51.578;7.306;2023-05-11T12:09:09;100948.66;;;21.41;50.50
27040;BME280;14589;51.578;7.306;2023-05-11T12:11:45;100940.78;;;21.51;50.34
27040;BME280;14589;51.578;7.306;2023-05-11T12:14:15;100943.75;;;20.90;53.74
27040;BME280;14589;51.578;7.306;2023-05-11T12:17:00;100939.31;;;21.02;54.79
27040;BME280;14589;51.578;7.306;2023-05-11T12:19:30;100945.88;;;20.88;54.35
27040;BME280;14589;51.578;7.306;2023-05-11T12:22:00;100953.03;;;20.56;55.75
27040;BME280;14589;51.578;7.306;2023-05-11T12:24:31;100944.13;;;20.06;57.80
27040;BME280;14589;51.578;7.306;2023-05-11T12:27:02;100941.44;;;19.72;58.91
27040;BME280;14589;51.578;7.306;2023-05-11T12:29:34;100939.03;;;19.56;61.34
27040;BME280;14589;51.578;7.306;2023-05-11T12:32:04;100939.66;;;19.30;61.09
27040;BME280;14589;51.578;7.306;2023-05-11T12:34:40;100928.66;;;19.30;61.89
27040;BME280;14589;51.578;7.306;2023-05-11T12:37:10;100932.81;;;19.19;63.33
27040;BME280;14589;51.578;7.306;2023-05-11T12:39:41;100941.41;;;19.10;65.48
27040;BME280;14589;51.578;7.306;2023-05-11T12:42:17;100941.94;;;18.98;68.82
27040;BME280;14589;51.578;7.306;2023-05-11T12:44:49;100940.13;;;18.84;70.05
27040;BME280;14589;51.578;7.306;2023-05-11T12:47:20;100929.84;;;18.72;71.88
27040;BME280;14589;51.578;7.306;2023-05-11T12:49:51;100934.44;;;18.29;71.35
27040;BME280;14589;51.578;7.306;2023-05-11T12:52:28;100931.19;;;18.40;71.34
27040;BME280;14589;51.578;7.306;2023-05-11T12:55:03;100935.38;;;18.36;72.22
27040;BME280;14589;51.578;7.306;2023-05-11T12:57:33;100928.78;;;18.30;71.72
27040;BME280;14589;51.578;7.306;2023-05-11T13:00:13;100931.97;;;17.98;72.18
27040;BME280;14589;51.578;7.306;2023-05-11T13:02:50;100936.91;;;17.88;72.20
27040;BME280;14589;51.578;7.306;2023-05-11T13:05:26;100928.50;;;17.89;74.75
27040;BME280;14589;51.578;7.306;2023-05-11T13:08:01;100925.66;;;17.83;75.77
27040;BME280;14589;51.578;7.306;2023-05-11T13:10:32;100938.34;;;17.69;73.58
27040;BME280;14589;51.578;7.306;2023-05-11T13:13:05;100936.28;;;17.71;75.28
27040;BME280;14589;51.578;7.306;2023-05-11T13:15:49;100925.66;;;17.68;75.87
27040;BME280;14589;51.578;7.306;2023-05-11T13:18:20;100931.44;;;17.58;75.26
27040;BME280;14589;51.578;7.306;2023-05-11T13:21:04;100941.59;;;17.35;76.54
27040;BME280;14589;51.578;7.306;2023-05-11T13:23:34;100938.59;;;17.45;75.88
27040;BME280;14589;51.578;7.306;2023-05-11T13:26:06;100931.78;;;17.40;76.02
27040;BME280;14589;51.578;7.306;2023-05-11T13:28:36;100935.84;;;17.45;76.41
27040;BME280;14589;51.578;7.306;2023-05-11T13:31:06;100943.91;;;17.46;76.74
27040;BME280;14589;51.578;7.306;2023-05-11T13:33:37;100943.06;;;17.46;76.66
27040;BME280;14589;51.578;7.306;2023-05-11T13:36:07;100952.78;;;17.48;76.72
27040;BME280;14589;51.578;7.306;2023-05-11T13:38:38;100935.84;;;17.45;77.18
27040;BME280;14589;51.578;7.306;2023-05-11T13:41:08;100938.59;;;17.45;77.81
27040;BME280;14589;51.578;7.306;2023-05-11T13:43:39;100929.13;;;17.32;78.04
27040;BME280;14589;51.578;7.306;2023-05-11T13:46:09;100930.94;;;17.25;77.83
27040;BME280;14589;51.578;7.306;2023-05-11T13:48:43;100935.25;;;17.34;79.65
27040;BME280;14589;51.578;7.306;2023-05-11T13:51:13;100922.22;;;17.36;79.89